Pooleville, Oklahoma
Current Conditions -  °F | °C
As of 2:15 PM on Sunday 25 Jan 2015 (Local Time) from K1F0 Reporting Station
Clear Clear  
Wind Chill: 61°   Ceiling: Unl
Heat Index: 61°   Visibility: 10mi
Dew Point: 23°   Wind: 14mph
Humidity: 23%   Direction: 330°NNW
Pressure: 30.01"   Gusts: 25mph
Location:  34.2137°N, 97.1822°W
Report Text: K1F0 252015Z AUTO 33012G22KT 10SM CLR 16/M05 A3001 RMK AO2
Loading
Personal Weather Stations






























Interactive Weather Map New forecast layout! Learn more

10-Day Weather Forecast

Advertisements
Track Severe Weather on mobile